createdAt,value
2022-12-18T00:02:13.894Z,34.83
2022-12-18T00:04:40.788Z,35.07
2022-12-18T00:07:07.574Z,35.00
2022-12-18T00:09:39.539Z,35.29
2022-12-18T00:14:43.157Z,35.03
2022-12-18T00:17:10.308Z,35.10
2022-12-18T00:19:37.168Z,35.05
2022-12-18T00:22:04.070Z,35.38
2022-12-18T00:24:30.935Z,35.25
2022-12-18T00:26:57.723Z,35.49
2022-12-18T00:29:24.634Z,35.18
2022-12-18T00:31:51.505Z,35.23
2022-12-18T00:34:18.330Z,35.28
2022-12-18T00:36:45.193Z,35.25
2022-12-18T00:39:12.626Z,35.44
2022-12-18T00:41:42.783Z,35.19
2022-12-18T00:44:11.185Z,35.30
2022-12-18T00:46:37.960Z,35.54
2022-12-18T00:49:04.876Z,35.43
2022-12-18T00:51:31.731Z,35.59
2022-12-18T00:53:58.608Z,35.23
2022-12-18T00:56:26.068Z,35.43
2022-12-18T00:58:53.070Z,35.38
2022-12-18T01:01:20.235Z,35.58
2022-12-18T01:03:47.892Z,35.30
2022-12-18T01:06:18.520Z,35.07
2022-12-18T01:08:45.474Z,35.33
2022-12-18T01:11:13.400Z,35.25
2022-12-18T01:13:41.322Z,35.23
2022-12-18T01:16:08.821Z,35.09
2022-12-18T01:18:36.025Z,35.14
2022-12-18T01:21:07.086Z,35.18
2022-12-18T01:23:33.900Z,35.11
2022-12-18T01:26:05.319Z,34.82
2022-12-18T01:28:32.136Z,34.87
2022-12-18T01:30:58.987Z,35.03
2022-12-18T01:33:25.764Z,34.88
2022-12-18T01:35:52.544Z,34.95
2022-12-18T01:38:19.373Z,35.15
2022-12-18T01:40:46.182Z,34.88
2022-12-18T01:43:13.023Z,34.98
2022-12-18T01:45:39.998Z,34.83
2022-12-18T01:48:08.827Z,34.95
2022-12-18T01:50:39.121Z,34.98
2022-12-18T01:53:09.145Z,35.10
2022-12-18T01:55:42.049Z,34.81
2022-12-18T01:58:08.862Z,34.71
2022-12-18T02:00:35.986Z,34.77
2022-12-18T02:03:03.166Z,34.79
2022-12-18T02:05:33.288Z,34.99
2022-12-18T02:08:03.247Z,34.77
2022-12-18T02:10:37.890Z,35.07
2022-12-18T02:13:07.723Z,35.13
2022-12-18T02:15:40.507Z,34.86
2022-12-18T02:18:11.690Z,34.96
2022-12-18T02:20:47.098Z,35.15
2022-12-18T02:23:15.201Z,34.98
2022-12-18T02:25:42.521Z,34.76
2022-12-18T02:28:11.208Z,34.88
2022-12-18T02:30:39.333Z,34.87
2022-12-18T02:33:09.888Z,35.05
2022-12-18T02:35:37.786Z,34.99
2022-12-18T02:38:05.845Z,34.91
2022-12-18T02:40:33.084Z,34.78
2022-12-18T02:43:02.923Z,35.07
2022-12-18T02:45:29.781Z,34.82
2022-12-18T02:47:57.376Z,34.96
2022-12-18T02:50:29.891Z,35.16
2022-12-18T02:52:59.728Z,34.90
2022-12-18T02:55:29.669Z,34.89
2022-12-18T02:57:59.744Z,34.71
2022-12-18T03:00:29.624Z,34.79
2022-12-18T03:03:00.532Z,34.57
2022-12-18T03:05:31.806Z,34.82
2022-12-18T03:08:04.141Z,34.78
2022-12-18T03:10:32.443Z,34.51
2022-12-18T03:13:03.993Z,34.57
2022-12-18T03:15:36.076Z,34.57
2022-12-18T03:18:05.961Z,34.52
2022-12-18T03:20:35.533Z,34.34
2022-12-18T03:23:08.545Z,34.49
2022-12-18T03:25:36.461Z,34.32
2022-12-18T03:28:04.240Z,34.72
2022-12-18T03:30:33.831Z,34.53
2022-12-18T03:33:02.128Z,34.59
2022-12-18T03:35:31.844Z,34.59
2022-12-18T03:37:58.775Z,34.48
2022-12-18T03:40:30.079Z,34.56
2022-12-18T03:43:00.800Z,34.32
2022-12-18T03:45:33.166Z,34.50
2022-12-18T03:48:03.192Z,34.25
2022-12-18T03:50:33.033Z,34.48
2022-12-18T03:53:02.926Z,34.43
2022-12-18T03:55:32.189Z,34.49
2022-12-18T03:57:59.973Z,34.28
2022-12-18T04:00:26.966Z,34.33
2022-12-18T04:02:55.522Z,34.57
2022-12-18T04:05:23.956Z,34.22
2022-12-18T04:07:52.345Z,34.33
2022-12-18T04:10:19.764Z,34.37
2022-12-18T04:12:46.562Z,34.61
2022-12-18T04:15:13.890Z,34.74
2022-12-18T04:17:44.804Z,34.39
2022-12-18T04:20:11.852Z,34.74
2022-12-18T04:22:38.907Z,34.78
2022-12-18T04:25:06.172Z,34.32
2022-12-18T04:27:33.001Z,34.54
2022-12-18T04:29:59.910Z,34.50
2022-12-18T04:32:26.887Z,34.60
2022-12-18T04:34:53.934Z,34.55
2022-12-18T04:37:20.751Z,34.23
2022-12-18T04:39:47.567Z,34.25
2022-12-18T04:42:14.490Z,34.14
2022-12-18T04:44:41.273Z,34.25
2022-12-18T04:47:08.865Z,34.45
2022-12-18T04:49:35.649Z,34.29
2022-12-18T04:52:02.484Z,34.25
2022-12-18T04:54:29.427Z,34.32
2022-12-18T04:56:56.192Z,34.11
2022-12-18T04:59:22.965Z,34.36
2022-12-18T05:01:50.530Z,33.99
2022-12-18T05:04:17.607Z,34.21
2022-12-18T05:06:44.942Z,33.95
2022-12-18T05:09:11.755Z,34.29
2022-12-18T05:11:38.622Z,34.14
2022-12-18T05:14:05.502Z,34.37
2022-12-18T05:16:32.800Z,33.84
2022-12-18T05:18:59.731Z,34.37
2022-12-18T05:21:26.552Z,34.39
2022-12-18T05:23:53.446Z,34.01
2022-12-18T05:26:20.767Z,33.99
2022-12-18T05:28:48.063Z,34.14
2022-12-18T05:31:15.205Z,34.46
2022-12-18T05:33:42.353Z,34.45
2022-12-18T05:36:10.829Z,34.46
2022-12-18T05:38:38.469Z,34.11
2022-12-18T05:41:05.810Z,34.13
2022-12-18T05:43:33.105Z,34.48
2022-12-18T05:46:04.311Z,34.16
2022-12-18T05:48:31.161Z,34.08
2022-12-18T05:51:04.141Z,34.17
2022-12-18T05:53:30.953Z,34.28
2022-12-18T05:56:00.788Z,34.67
2022-12-18T05:58:27.538Z,34.45
2022-12-18T06:00:54.364Z,34.33
2022-12-18T06:03:21.276Z,34.17
2022-12-18T06:05:48.124Z,34.24
2022-12-18T06:08:15.032Z,34.23
2022-12-18T06:10:42.620Z,34.67
2022-12-18T06:13:09.685Z,34.24
2022-12-18T06:15:38.432Z,34.55
2022-12-18T06:18:05.741Z,34.22
2022-12-18T06:20:33.948Z,34.49
2022-12-18T06:23:01.277Z,34.30
2022-12-18T06:25:28.144Z,34.29
2022-12-18T06:27:54.996Z,34.33
2022-12-18T06:30:21.855Z,34.31
2022-12-18T06:32:54.621Z,34.35
2022-12-18T06:35:23.168Z,34.36
2022-12-18T06:37:50.010Z,34.16
2022-12-18T06:40:17.500Z,34.32
2022-12-18T06:42:44.340Z,34.04
2022-12-18T06:45:12.694Z,34.38
2022-12-18T06:47:39.597Z,33.96
2022-12-18T06:50:06.923Z,34.05
2022-12-18T06:52:34.010Z,34.43
2022-12-18T06:55:01.064Z,33.90
2022-12-18T06:57:27.834Z,34.24
2022-12-18T06:59:54.644Z,34.24
2022-12-18T07:02:21.626Z,34.26
2022-12-18T07:04:48.603Z,34.25
2022-12-18T07:07:15.413Z,34.16
2022-12-18T07:09:42.238Z,34.33
2022-12-18T07:12:09.282Z,34.35
2022-12-18T07:14:36.125Z,34.21
2022-12-18T07:17:03.021Z,34.19
2022-12-18T07:19:30.785Z,34.52
2022-12-18T07:21:57.903Z,34.40
2022-12-18T07:24:24.666Z,34.48
2022-12-18T07:26:51.524Z,34.12
2022-12-18T07:29:18.451Z,34.54
2022-12-18T07:31:45.495Z,34.47
2022-12-18T07:34:13.145Z,34.27
2022-12-18T07:36:40.040Z,34.46
2022-12-18T07:39:06.843Z,34.60
2022-12-18T07:41:33.682Z,34.40
2022-12-18T07:44:00.755Z,34.58
2022-12-18T07:46:27.543Z,34.23
2022-12-18T07:48:54.406Z,34.61
2022-12-18T07:51:21.219Z,34.40
2022-12-18T07:53:49.449Z,34.55
2022-12-18T07:56:27.231Z,34.63
2022-12-18T07:58:55.304Z,34.56
2022-12-18T08:01:22.306Z,34.45
2022-12-18T08:03:49.476Z,34.28
2022-12-18T08:06:18.860Z,34.40
2022-12-18T08:08:45.649Z,34.77
2022-12-18T08:11:12.440Z,34.60
2022-12-18T08:13:39.682Z,34.75
2022-12-18T08:16:07.991Z,34.53
2022-12-18T08:18:35.548Z,34.76
2022-12-18T08:21:05.445Z,34.60
2022-12-18T08:23:32.248Z,34.32
2022-12-18T08:25:59.746Z,34.82
2022-12-18T08:28:26.524Z,34.72
2022-12-18T08:30:53.868Z,34.72
2022-12-18T08:33:20.761Z,34.71
2022-12-18T08:35:47.613Z,34.54
2022-12-18T08:38:14.424Z,34.79
2022-12-18T08:40:41.759Z,34.50
2022-12-18T08:43:13.616Z,34.71
2022-12-18T08:45:40.508Z,34.83
2022-12-18T08:48:07.308Z,34.58
2022-12-18T08:50:34.150Z,34.82
2022-12-18T08:53:01.538Z,34.92
2022-12-18T08:55:28.370Z,34.75
2022-12-18T08:57:55.168Z,35.04
2022-12-18T09:00:22.122Z,34.87
2022-12-18T09:02:49.026Z,34.81
2022-12-18T09:05:16.778Z,35.17
2022-12-18T09:07:43.559Z,34.91
2022-12-18T09:10:10.607Z,35.08
2022-12-18T09:12:37.411Z,35.17
2022-12-18T09:15:04.543Z,35.03
2022-12-18T09:17:31.494Z,35.29
2022-12-18T09:19:58.368Z,34.90
2022-12-18T09:22:25.224Z,34.93
2022-12-18T09:24:52.069Z,35.24
2022-12-18T09:27:18.906Z,35.21
2022-12-18T09:29:45.893Z,35.41
2022-12-18T09:32:16.304Z,35.47
2022-12-18T09:34:47.480Z,35.02
2022-12-18T09:37:14.309Z,35.24
2022-12-18T09:39:41.167Z,35.44
2022-12-18T09:42:12.404Z,35.19
2022-12-18T09:44:45.545Z,35.41
2022-12-18T09:47:12.944Z,35.52
2022-12-18T09:49:42.879Z,35.42
2022-12-18T09:52:14.843Z,35.63
2022-12-18T09:54:43.109Z,35.60
2022-12-18T09:57:13.601Z,35.75
2022-12-18T09:59:41.048Z,35.32
2022-12-18T10:02:11.194Z,35.24
2022-12-18T10:04:38.106Z,35.33
2022-12-18T10:07:09.786Z,35.29
2022-12-18T10:09:43.402Z,35.20
2022-12-18T10:12:18.464Z,35.06
2022-12-18T10:14:48.527Z,35.14
2022-12-18T10:17:18.417Z,35.01
2022-12-18T10:19:51.068Z,35.17
2022-12-18T10:22:24.526Z,34.97
2022-12-18T10:24:57.090Z,34.99
2022-12-18T10:27:27.242Z,35.15
2022-12-18T10:29:54.685Z,34.97
2022-12-18T10:32:23.068Z,34.81
2022-12-18T10:34:55.340Z,35.21
2022-12-18T10:37:26.858Z,34.86
2022-12-18T10:39:56.768Z,35.28
2022-12-18T10:42:23.651Z,35.00
2022-12-18T10:45:02.131Z,34.78
2022-12-18T10:47:29.150Z,34.88
2022-12-18T10:49:56.663Z,34.84
2022-12-18T10:52:24.549Z,35.19
2022-12-18T10:54:54.581Z,34.80
2022-12-18T10:57:24.620Z,34.83
2022-12-18T10:59:53.398Z,35.03
2022-12-18T11:02:28.685Z,35.05
2022-12-18T11:04:55.719Z,35.34
2022-12-18T11:07:22.552Z,35.00
2022-12-18T11:10:01.104Z,35.14
2022-12-18T11:12:29.863Z,35.00
2022-12-18T11:14:58.793Z,35.30
2022-12-18T11:17:31.508Z,35.25
2022-12-18T11:20:03.083Z,35.47
2022-12-18T11:22:31.622Z,35.33
2022-12-18T11:25:30.290Z,35.10
2022-12-18T11:27:48.619Z,35.37
2022-12-18T11:30:18.512Z,35.18
2022-12-18T11:32:46.396Z,35.26
2022-12-18T11:35:16.311Z,35.18
2022-12-18T11:37:44.908Z,35.05
2022-12-18T11:40:15.147Z,35.00
2022-12-18T11:42:47.856Z,35.18
2022-12-18T11:45:15.087Z,34.95
2022-12-18T11:47:45.062Z,35.19
2022-12-18T11:50:15.529Z,34.86
2022-12-18T11:52:43.609Z,34.82
2022-12-18T11:55:13.468Z,35.07
2022-12-18T11:57:47.699Z,34.98
2022-12-18T12:00:17.557Z,35.04
2022-12-18T12:02:44.877Z,34.98
2022-12-18T12:05:14.947Z,34.74
2022-12-18T12:07:44.883Z,34.58
2022-12-18T12:10:12.081Z,34.81
2022-12-18T12:12:48.313Z,35.01
2022-12-18T12:15:17.506Z,34.93
2022-12-18T12:17:50.610Z,34.96
2022-12-18T12:20:23.156Z,34.93
2022-12-18T12:22:50.386Z,35.02
2022-12-18T12:25:20.341Z,35.04
2022-12-18T12:27:47.578Z,34.97
2022-12-18T12:30:17.492Z,34.93
2022-12-18T12:32:47.711Z,34.89
2022-12-18T12:35:18.324Z,34.99
2022-12-18T12:37:48.232Z,35.29
2022-12-18T12:40:50.304Z,34.92
2022-12-18T12:43:14.107Z,34.89
2022-12-18T12:45:44.070Z,35.21
2022-12-18T12:48:17.538Z,35.30
2022-12-18T12:50:45.841Z,35.03
2022-12-18T12:53:20.560Z,35.52
2022-12-18T12:55:48.958Z,35.34
2022-12-18T12:58:16.224Z,35.24
2022-12-18T13:00:49.184Z,35.31
2022-12-18T13:03:20.961Z,35.51
2022-12-18T13:05:51.020Z,35.67
2022-12-18T13:08:21.071Z,35.66
2022-12-18T13:10:49.284Z,35.34
2022-12-18T13:13:19.503Z,35.87
2022-12-18T13:16:05.862Z,35.47
2022-12-18T13:18:33.767Z,35.82
2022-12-18T13:21:03.293Z,35.69
2022-12-18T13:23:33.856Z,35.68
2022-12-18T13:26:28.189Z,35.77
2022-12-18T13:28:57.548Z,35.65
2022-12-18T13:31:27.409Z,35.33
2022-12-18T13:34:25.822Z,35.74
2022-12-18T13:36:55.025Z,35.40
2022-12-18T13:39:27.689Z,35.53
2022-12-18T13:42:03.166Z,35.51
2022-12-18T13:44:38.526Z,35.53
2022-12-18T13:47:26.547Z,35.49
2022-12-18T13:49:54.021Z,35.24
2022-12-18T13:52:22.779Z,35.22
2022-12-18T13:54:52.947Z,35.25
2022-12-18T13:57:23.869Z,35.62
2022-12-18T13:59:50.794Z,35.33
2022-12-18T14:02:19.712Z,35.31
2022-12-18T14:04:47.543Z,35.30
2022-12-18T14:07:16.754Z,35.46
2022-12-18T14:09:47.492Z,35.64
2022-12-18T14:12:20.802Z,35.75
2022-12-18T14:14:49.553Z,35.51
2022-12-18T14:17:20.084Z,35.64
2022-12-18T14:19:49.080Z,35.83
2022-12-18T14:22:17.828Z,35.67
2022-12-18T14:24:44.967Z,35.40
2022-12-18T14:27:15.208Z,35.41
2022-12-18T14:29:44.396Z,35.72
2022-12-18T14:32:17.694Z,35.72
2022-12-18T14:34:46.287Z,35.78
2022-12-18T14:37:14.596Z,35.56
2022-12-18T14:39:41.467Z,35.72
2022-12-18T14:42:11.683Z,35.51
2022-12-18T14:44:50.629Z,35.54
2022-12-18T14:47:25.291Z,35.78
2022-12-18T14:49:52.343Z,35.55
2022-12-18T14:52:26.919Z,35.50
2022-12-18T14:54:54.006Z,35.73
2022-12-18T14:57:22.289Z,36.10
2022-12-18T14:59:49.308Z,35.91
2022-12-18T15:02:19.418Z,35.93
2022-12-18T15:04:46.624Z,35.62
2022-12-18T15:07:15.261Z,35.96
2022-12-18T15:09:46.851Z,35.75
2022-12-18T15:12:16.870Z,35.92
2022-12-18T15:14:43.951Z,36.24
2022-12-18T15:17:14.040Z,36.09
2022-12-18T15:19:42.244Z,36.02
2022-12-18T15:22:12.389Z,36.19
2022-12-18T15:24:39.783Z,36.06
2022-12-18T15:27:20.801Z,36.25
2022-12-18T15:30:00.856Z,36.02
2022-12-18T15:32:28.284Z,36.17
2022-12-18T15:34:58.661Z,36.69
2022-12-18T15:37:26.020Z,36.51
2022-12-18T15:39:53.213Z,36.73
2022-12-18T15:42:23.547Z,36.74
2022-12-18T15:44:50.954Z,36.65
2022-12-18T15:47:18.107Z,36.64
2022-12-18T15:49:45.508Z,36.78
2022-12-18T15:52:14.901Z,36.95
2022-12-18T15:54:45.284Z,36.71
2022-12-18T15:57:18.062Z,36.96
2022-12-18T15:59:45.003Z,37.07
2022-12-18T16:02:17.182Z,37.06
2022-12-18T16:04:44.259Z,37.03
2022-12-18T16:07:15.076Z,37.10
2022-12-18T16:09:45.212Z,36.63
2022-12-18T16:12:15.192Z,36.86
2022-12-18T16:14:42.494Z,36.98
2022-12-18T16:17:11.767Z,36.61
2022-12-18T16:19:38.964Z,36.51
2022-12-18T16:22:06.623Z,36.82
2022-12-18T16:24:37.438Z,36.82
2022-12-18T16:27:05.104Z,36.95
2022-12-18T16:29:32.342Z,36.59
2022-12-18T16:32:00.903Z,36.54
2022-12-18T16:34:29.864Z,36.50
2022-12-18T16:37:03.299Z,36.69
2022-12-18T16:39:33.444Z,36.69
2022-12-18T16:42:00.767Z,36.83
2022-12-18T16:44:30.271Z,36.59
2022-12-18T16:47:03.420Z,36.57
2022-12-18T16:49:31.152Z,36.84
2022-12-18T16:51:58.569Z,37.04
2022-12-18T16:54:26.064Z,37.08
2022-12-18T16:56:53.606Z,36.63
2022-12-18T16:59:20.982Z,36.77
2022-12-18T17:01:49.705Z,37.06
2022-12-18T17:04:17.642Z,37.12
2022-12-18T17:06:45.729Z,37.12
2022-12-18T17:09:15.404Z,36.86
2022-12-18T17:11:43.602Z,36.65
2022-12-18T17:14:13.248Z,37.02
2022-12-18T17:16:40.699Z,36.95
2022-12-18T17:19:13.594Z,36.73
2022-12-18T17:21:45.302Z,36.84
2022-12-18T17:24:13.072Z,37.25
2022-12-18T17:26:40.594Z,36.99
2022-12-18T17:29:08.130Z,37.02
2022-12-18T17:31:35.986Z,37.01
2022-12-18T17:34:03.770Z,36.88
2022-12-18T17:36:32.900Z,36.96
2022-12-18T17:39:01.583Z,37.05
2022-12-18T17:41:29.945Z,37.11
2022-12-18T17:43:58.851Z,37.02
2022-12-18T17:46:27.165Z,37.16
2022-12-18T17:48:58.139Z,37.31
2022-12-18T17:51:26.014Z,37.32
2022-12-18T17:53:53.735Z,37.27
2022-12-18T17:56:22.446Z,37.12
2022-12-18T17:58:50.917Z,37.31
2022-12-18T18:01:19.604Z,37.34
2022-12-18T18:03:48.115Z,37.42
2022-12-18T18:06:18.479Z,37.54
2022-12-18T18:08:45.491Z,37.65
2022-12-18T18:11:16.854Z,37.58
2022-12-18T18:13:47.428Z,37.48
2022-12-18T18:16:14.474Z,37.30
2022-12-18T18:18:41.506Z,37.88
2022-12-18T18:21:09.471Z,37.51
2022-12-18T18:23:36.506Z,37.86
2022-12-18T18:26:06.573Z,37.88
2022-12-18T18:28:34.286Z,37.67
2022-12-18T18:31:05.426Z,37.82
2022-12-18T18:33:33.104Z,37.97
2022-12-18T18:35:59.922Z,37.97
2022-12-18T18:38:27.113Z,37.83
2022-12-18T18:40:57.054Z,37.76
2022-12-18T18:43:24.104Z,38.24
2022-12-18T18:45:55.154Z,38.12
2022-12-18T18:48:21.988Z,37.87
2022-12-18T18:50:52.982Z,37.91
2022-12-18T18:53:19.839Z,38.33
2022-12-18T18:55:51.744Z,38.32
2022-12-18T18:58:31.122Z,38.13
2022-12-18T19:00:59.370Z,38.65
2022-12-18T19:03:27.082Z,38.22
2022-12-18T19:05:56.205Z,38.49
2022-12-18T19:08:23.707Z,38.40
2022-12-18T19:10:57.695Z,38.76
2022-12-18T19:13:26.923Z,38.41
2022-12-18T19:15:54.974Z,38.77
2022-12-18T19:18:22.571Z,39.09
2022-12-18T19:20:52.811Z,38.98
2022-12-18T19:23:19.661Z,39.54
2022-12-18T19:25:46.546Z,39.51
2022-12-18T19:28:21.949Z,39.76
2022-12-18T19:30:49.460Z,39.92
2022-12-18T19:36:06.657Z,39.73
2022-12-18T19:38:36.051Z,39.83
2022-12-18T19:41:04.901Z,39.55
2022-12-18T19:43:32.242Z,39.44
2022-12-18T19:45:59.171Z,39.64
2022-12-18T19:48:26.049Z,39.62
2022-12-18T19:50:52.904Z,39.35
2022-12-18T19:53:19.739Z,39.37
2022-12-18T19:55:46.834Z,39.76
2022-12-18T19:58:15.213Z,39.75
2022-12-18T20:00:42.063Z,39.54
2022-12-18T20:03:21.229Z,39.54
2022-12-18T20:05:52.225Z,39.38
2022-12-18T20:08:19.078Z,39.48
2022-12-18T20:10:49.181Z,39.65
2022-12-18T20:13:16.601Z,39.30
2022-12-18T20:15:45.138Z,39.61
2022-12-18T20:18:12.543Z,39.69
2022-12-18T20:20:39.662Z,39.44
2022-12-18T20:23:07.160Z,39.38
2022-12-18T20:25:34.125Z,39.81
2022-12-18T20:28:01.023Z,39.47
2022-12-18T20:30:28.384Z,39.45
2022-12-18T20:32:55.200Z,39.63
2022-12-18T20:35:22.325Z,39.70
2022-12-18T20:37:50.843Z,39.26
2022-12-18T20:40:18.734Z,39.35
2022-12-18T20:42:45.622Z,39.19
2022-12-18T20:45:12.469Z,39.31
2022-12-18T20:47:39.464Z,39.14
2022-12-18T20:50:06.681Z,39.61
2022-12-18T20:52:33.586Z,39.52
2022-12-18T20:55:00.625Z,39.40
2022-12-18T20:57:28.004Z,39.65
2022-12-18T20:59:57.727Z,39.45
2022-12-18T21:02:24.834Z,39.36
2022-12-18T21:04:51.777Z,39.41
2022-12-18T21:07:18.649Z,39.44
2022-12-18T21:09:45.471Z,39.46
2022-12-18T21:12:16.784Z,39.39
2022-12-18T21:14:45.302Z,39.60
2022-12-18T21:17:13.326Z,39.44
2022-12-18T21:19:40.389Z,39.52
2022-12-18T21:22:08.361Z,39.60
2022-12-18T21:24:35.183Z,39.54
2022-12-18T21:27:02.168Z,39.59
2022-12-18T21:29:29.083Z,39.50
2022-12-18T21:31:56.110Z,39.51
2022-12-18T21:34:25.752Z,39.27
2022-12-18T21:36:52.820Z,39.68
2022-12-18T21:39:20.097Z,39.49
2022-12-18T21:41:52.560Z,39.50
2022-12-18T21:44:22.333Z,39.66
2022-12-18T21:46:55.010Z,39.46
2022-12-18T21:49:25.145Z,39.63
2022-12-18T21:51:53.252Z,39.65
2022-12-18T21:54:20.312Z,39.63
2022-12-18T21:56:47.545Z,39.65
2022-12-18T21:59:15.332Z,39.80
2022-12-18T22:01:42.393Z,39.73
2022-12-18T22:04:09.300Z,39.75
2022-12-18T22:06:36.228Z,39.74
2022-12-18T22:09:03.089Z,40.13
2022-12-18T22:11:29.965Z,39.96
2022-12-18T22:13:56.809Z,39.76
2022-12-18T22:16:24.670Z,40.24
2022-12-18T22:18:51.585Z,39.89
2022-12-18T22:21:25.490Z,39.86
2022-12-18T22:23:57.388Z,40.09
2022-12-18T22:26:24.899Z,40.09
2022-12-18T22:28:55.555Z,39.80
2022-12-18T22:31:22.487Z,39.99
2022-12-18T22:33:49.385Z,40.38
2022-12-18T22:36:16.372Z,39.98
2022-12-18T22:38:46.735Z,40.19
2022-12-18T22:41:13.575Z,40.26
2022-12-18T22:43:40.471Z,40.36
2022-12-18T22:46:07.368Z,40.10
2022-12-18T22:48:34.175Z,40.42
2022-12-18T22:51:01.197Z,40.82
2022-12-18T22:53:28.010Z,40.45
2022-12-18T22:56:00.348Z,40.72
2022-12-18T22:58:27.162Z,40.52
2022-12-18T23:00:53.945Z,40.54
2022-12-18T23:03:20.838Z,40.87
2022-12-18T23:05:48.069Z,40.92
2022-12-18T23:08:14.901Z,40.94
2022-12-18T23:10:41.827Z,40.98
2022-12-18T23:13:08.629Z,41.66
2022-12-18T23:15:35.456Z,41.80
2022-12-18T23:18:02.307Z,42.00
2022-12-18T23:20:29.088Z,42.18
2022-12-18T23:22:55.988Z,42.34
2022-12-18T23:25:23.000Z,42.45
2022-12-18T23:27:49.825Z,42.37
2022-12-18T23:30:16.841Z,42.41
2022-12-18T23:32:43.687Z,42.60
2022-12-18T23:35:10.471Z,42.80
2022-12-18T23:37:58.745Z,42.44
2022-12-18T23:40:26.466Z,42.81
2022-12-18T23:42:53.289Z,42.88
2022-12-18T23:45:20.109Z,42.55
2022-12-18T23:47:48.748Z,42.40
2022-12-18T23:50:18.208Z,42.45
2022-12-18T23:52:45.048Z,42.66
2022-12-18T23:55:11.822Z,42.78
2022-12-18T23:57:38.632Z,42.68
